createdAt,value
2022-09-13T04:16:04.476Z,3.63
2022-09-13T04:18:31.623Z,3.42
2022-09-13T04:21:00.357Z,3.42
2022-09-13T04:23:28.883Z,3.28
2022-09-13T04:25:55.516Z,3.30
2022-09-13T04:28:22.582Z,3.30
2022-09-13T04:30:49.533Z,2.63
2022-09-13T04:33:18.219Z,3.55
2022-09-13T04:35:44.800Z,3.53
2022-09-13T04:38:11.248Z,3.30
2022-09-13T04:40:40.820Z,2.95
2022-09-13T04:43:07.312Z,3.28
2022-09-13T04:45:33.844Z,2.50
2022-09-13T04:48:02.863Z,3.72
2022-09-13T04:50:30.939Z,4.40
2022-09-13T04:52:57.373Z,3.75
2022-09-13T04:55:25.974Z,2.58
2022-09-13T04:57:56.793Z,2.88
2022-09-13T05:00:25.036Z,3.95
2022-09-13T05:02:56.415Z,3.38
2022-09-13T05:05:23.604Z,2.88
2022-09-13T05:07:51.252Z,3.15
2022-09-13T05:10:19.602Z,3.20
2022-09-13T05:12:46.678Z,2.92
2022-09-13T05:15:13.468Z,3.05
2022-09-13T05:17:40.069Z,2.90
2022-09-13T05:20:07.075Z,4.07
2022-09-13T05:22:33.587Z,3.15
2022-09-13T05:25:00.087Z,3.15
2022-09-13T05:27:26.851Z,3.10
2022-09-13T05:29:53.375Z,3.90
2022-09-13T05:32:19.915Z,4.32
2022-09-13T05:34:46.516Z,3.50
2022-09-13T05:37:13.120Z,3.60
2022-09-13T05:40:07.467Z,3.53
2022-09-13T05:42:28.310Z,3.55
2022-09-13T05:44:54.986Z,3.70
2022-09-13T05:47:25.922Z,3.97
2022-09-13T05:50:09.485Z,4.18
2022-09-13T05:52:37.446Z,3.83
2022-09-13T05:55:04.192Z,3.80
2022-09-13T05:57:30.705Z,4.00
2022-09-13T06:00:01.342Z,4.78
2022-09-13T06:02:27.891Z,4.10
2022-09-13T06:04:54.503Z,4.28
2022-09-13T06:07:21.034Z,4.97
2022-09-13T06:09:47.674Z,4.45
2022-09-13T06:12:14.391Z,5.10
2022-09-13T06:14:42.987Z,5.18
2022-09-13T06:17:10.785Z,4.95
2022-09-13T06:19:37.323Z,4.95
2022-09-13T06:22:03.890Z,5.05
2022-09-13T06:24:30.868Z,5.00
2022-09-13T06:26:58.070Z,4.45
2022-09-13T06:29:25.647Z,5.68
2022-09-13T06:31:54.350Z,4.55
2022-09-13T06:34:20.823Z,5.45
2022-09-13T06:36:47.385Z,4.85
2022-09-13T06:39:13.890Z,4.68
2022-09-13T06:41:40.409Z,5.60
2022-09-13T06:44:06.830Z,5.47
2022-09-13T06:46:34.931Z,5.30
2022-09-13T06:49:04.009Z,4.95
2022-09-13T06:51:31.294Z,5.90
2022-09-13T06:53:58.532Z,4.95
2022-09-13T06:56:33.419Z,5.22
2022-09-13T06:59:03.403Z,5.35
2022-09-13T07:01:32.791Z,5.05
2022-09-13T07:04:02.257Z,4.65
2022-09-13T07:06:31.512Z,5.20
2022-09-13T07:09:00.158Z,4.97
2022-09-13T07:11:33.102Z,5.00
2022-09-13T07:14:00.926Z,5.30
2022-09-13T07:16:30.112Z,4.63
2022-09-13T07:18:58.852Z,5.38
2022-09-13T07:21:26.359Z,5.15
2022-09-13T07:23:54.218Z,5.25
2022-09-13T07:26:21.164Z,6.30
2022-09-13T07:28:49.957Z,5.43
2022-09-13T07:31:46.785Z,5.78
2022-09-13T07:34:18.608Z,5.82
2022-09-13T07:36:46.811Z,5.93
2022-09-13T07:39:19.242Z,5.63
2022-09-13T07:41:48.366Z,6.18
2022-09-13T07:44:15.008Z,5.47
2022-09-13T07:46:45.356Z,5.65
2022-09-13T07:49:14.305Z,6.07
2022-09-13T07:51:42.898Z,6.65
2022-09-13T07:54:15.180Z,5.22
2022-09-13T07:56:42.414Z,5.25
2022-09-13T07:59:14.397Z,5.85
2022-09-13T08:01:49.106Z,5.13
2022-09-13T08:04:19.609Z,5.95
2022-09-13T08:06:46.871Z,5.25
2022-09-13T08:09:14.624Z,4.93
2022-09-13T08:11:42.457Z,5.85
2022-09-13T08:14:11.318Z,5.68
2022-09-13T08:16:39.481Z,5.80
2022-09-13T08:19:07.580Z,5.13
2022-09-13T08:21:38.837Z,6.40
2022-09-13T08:24:08.673Z,6.25
2022-09-13T08:26:36.379Z,6.65
2022-09-13T08:29:04.973Z,6.43
2022-09-13T08:31:31.808Z,7.30
2022-09-13T08:33:59.340Z,6.88
2022-09-13T08:36:27.520Z,6.00
2022-09-13T08:38:57.666Z,7.07
2022-09-13T08:45:15.856Z,6.05
2022-09-13T08:47:56.790Z,5.03
2022-09-13T08:50:34.182Z,5.05
2022-09-13T08:53:22.454Z,5.13
2022-09-13T08:56:04.459Z,5.20
2022-09-13T08:59:02.483Z,5.32
2022-09-13T09:01:45.647Z,4.95
2022-09-13T09:04:27.562Z,4.70
2022-09-13T09:07:17.207Z,4.85
2022-09-13T09:09:51.706Z,5.18
2022-09-13T09:12:26.787Z,5.90
2022-09-13T09:15:03.563Z,6.25
2022-09-13T09:17:44.147Z,6.25
2022-09-13T09:20:26.041Z,6.75
2022-09-13T09:22:55.062Z,6.65
2022-09-13T09:25:24.124Z,8.00
2022-09-13T09:28:19.588Z,7.93
2022-09-13T09:31:02.834Z,8.23
2022-09-13T09:33:44.673Z,7.40
2022-09-13T09:36:20.335Z,7.40
2022-09-13T09:38:47.076Z,7.40
2022-09-13T09:41:32.501Z,8.68
2022-09-13T09:44:17.225Z,8.00
2022-09-13T09:46:48.088Z,7.30
2022-09-13T09:49:50.841Z,9.25
2022-09-13T09:52:22.580Z,8.02
2022-09-13T09:54:50.500Z,8.40
2022-09-13T09:57:20.508Z,8.13
2022-09-13T09:59:47.094Z,9.93
2022-09-13T10:02:20.408Z,7.15
2022-09-13T10:04:58.924Z,7.85
2022-09-13T10:07:34.425Z,8.18
2022-09-13T10:10:23.387Z,7.68
2022-09-13T10:12:55.996Z,7.72
2022-09-13T10:15:27.330Z,7.60
2022-09-13T10:18:40.105Z,7.13
2022-09-13T10:21:11.258Z,7.45
2022-09-13T10:23:37.836Z,7.53
2022-09-13T10:26:16.995Z,7.82
2022-09-13T10:29:02.982Z,8.38
2022-09-13T10:31:37.049Z,7.75
2022-09-13T10:34:20.598Z,8.45
2022-09-13T10:36:58.604Z,8.32
2022-09-13T10:39:27.795Z,7.57
2022-09-13T10:42:02.202Z,7.85
2022-09-13T10:44:43.941Z,7.15
2022-09-13T10:47:18.864Z,7.95
2022-09-13T10:49:48.295Z,7.38
2022-09-13T10:52:31.098Z,7.35
2022-09-13T10:55:19.085Z,6.22
2022-09-13T10:57:50.901Z,6.13
2022-09-13T11:00:25.563Z,6.18
2022-09-13T11:03:15.506Z,5.93
2022-09-13T11:06:02.442Z,5.80
2022-09-13T11:08:50.927Z,6.72
2022-09-13T11:11:50.904Z,5.55
2022-09-13T11:14:45.214Z,5.43
2022-09-13T11:17:54.707Z,4.82
2022-09-13T11:20:44.545Z,4.70
2022-09-13T11:23:32.467Z,3.97
2022-09-13T11:26:09.206Z,4.07
2022-09-13T11:29:02.952Z,3.47
2022-09-13T11:31:50.781Z,3.25
2022-09-13T11:34:45.334Z,3.65
2022-09-13T11:37:30.179Z,3.00
2022-09-13T11:40:27.474Z,3.08
2022-09-13T11:43:27.466Z,2.78
2022-09-13T11:46:06.113Z,3.50
2022-09-13T11:49:01.395Z,3.17
2022-09-13T11:51:44.189Z,4.20
2022-09-13T11:54:53.599Z,4.50
2022-09-13T11:57:36.805Z,3.03
2022-09-13T12:00:10.368Z,4.03
2022-09-13T12:05:22.909Z,4.00
2022-09-13T12:07:59.638Z,3.90
2022-09-13T12:10:33.704Z,4.78
2022-09-13T12:13:03.297Z,4.05
2022-09-13T12:15:37.833Z,3.70
2022-09-13T12:18:34.409Z,3.17
2022-09-13T12:21:10.867Z,3.60
2022-09-13T12:23:50.664Z,3.17
2022-09-13T12:26:39.587Z,3.75
2022-09-13T12:29:19.317Z,3.53
2022-09-13T12:31:45.815Z,4.70
2022-09-13T12:34:22.313Z,4.45
2022-09-13T12:36:59.875Z,4.93
2022-09-13T12:39:34.185Z,4.25
2022-09-13T12:42:19.411Z,4.93
2022-09-13T12:45:23.842Z,4.70
2022-09-13T12:48:22.571Z,5.07
2022-09-13T12:50:51.937Z,6.40
2022-09-13T12:53:52.473Z,4.65
2022-09-13T12:56:31.066Z,5.25
2022-09-13T12:59:21.605Z,4.80
2022-09-13T13:01:50.736Z,4.72
2022-09-13T13:04:35.661Z,5.07
2022-09-13T13:07:06.741Z,4.07
2022-09-13T13:09:53.240Z,4.43
2022-09-13T13:12:40.493Z,4.78
2022-09-13T13:15:27.301Z,3.92
2022-09-13T13:17:57.284Z,4.15
2022-09-13T13:21:18.767Z,3.53
2022-09-13T13:24:15.802Z,4.72
2022-09-13T13:26:42.110Z,3.38
2022-09-13T13:29:15.780Z,3.65
2022-09-13T13:31:45.192Z,3.70
2022-09-13T13:34:14.833Z,3.90
2022-09-13T13:36:41.177Z,3.88
2022-09-13T13:39:23.014Z,3.30
2022-09-13T13:41:59.525Z,2.97
2022-09-13T13:44:25.937Z,3.20
2022-09-13T13:46:55.096Z,3.15
2022-09-13T13:49:30.642Z,3.30
2022-09-13T13:52:06.099Z,3.08
2022-09-13T13:54:41.605Z,3.40
2022-09-13T13:57:50.022Z,2.70
2022-09-13T14:00:21.179Z,3.03
2022-09-13T14:02:50.750Z,2.78
2022-09-13T14:05:27.333Z,3.25
2022-09-13T14:08:15.621Z,2.83
2022-09-13T14:11:29.794Z,2.33
2022-09-13T14:14:42.856Z,2.72
2022-09-13T14:17:30.929Z,2.67
2022-09-13T14:20:13.280Z,2.50
2022-09-13T14:22:39.711Z,2.30
2022-09-13T14:25:14.123Z,2.92
2022-09-13T14:27:43.901Z,2.78
2022-09-13T14:30:32.197Z,2.70
2022-09-13T14:33:08.647Z,2.90
2022-09-13T14:35:37.998Z,3.05
2022-09-13T14:38:18.339Z,2.97
2022-09-13T14:40:54.033Z,3.47
2022-09-13T14:43:26.480Z,2.85
2022-09-13T14:45:57.643Z,3.35
2022-09-13T14:48:46.152Z,3.83
2022-09-13T14:51:18.373Z,3.97
2022-09-13T14:53:49.162Z,3.05
2022-09-13T14:56:41.550Z,4.20
2022-09-13T14:59:18.269Z,4.40
2022-09-13T15:01:45.846Z,3.95
2022-09-13T15:04:12.312Z,4.00
2022-09-13T15:06:40.494Z,4.80
2022-09-13T15:09:12.835Z,4.63
2022-09-13T15:11:43.338Z,5.03
2022-09-13T15:14:38.095Z,4.43
2022-09-13T15:17:14.650Z,4.82
2022-09-13T15:19:43.622Z,4.35
2022-09-13T15:22:30.265Z,4.63
2022-09-13T15:25:02.157Z,4.32
2022-09-13T15:27:29.806Z,4.30
2022-09-13T15:29:59.232Z,5.13
2022-09-13T15:32:32.199Z,4.90
2022-09-13T15:35:03.057Z,4.68
2022-09-13T15:37:36.115Z,5.18
2022-09-13T15:40:19.502Z,4.97
2022-09-13T15:42:52.133Z,5.38
2022-09-13T15:45:20.618Z,4.68
2022-09-13T15:47:50.216Z,4.90
2022-09-13T15:50:36.914Z,4.45
2022-09-13T15:53:11.484Z,4.90
2022-09-13T15:55:39.471Z,4.25
2022-09-13T15:58:05.892Z,4.55
2022-09-13T16:00:32.358Z,3.95
2022-09-13T16:03:00.031Z,4.55
2022-09-13T16:05:26.685Z,4.78
2022-09-13T16:07:54.850Z,4.90
2022-09-13T16:10:22.962Z,4.95
2022-09-13T16:12:50.043Z,4.97
2022-09-13T16:15:16.971Z,5.28
2022-09-13T16:17:43.606Z,5.18
2022-09-13T16:20:15.434Z,4.53
2022-09-13T16:22:42.172Z,6.57
2022-09-13T16:25:13.054Z,4.70
2022-09-13T16:27:40.217Z,4.63
2022-09-13T16:30:07.747Z,4.93
2022-09-13T16:32:34.173Z,4.90
2022-09-13T16:35:00.751Z,4.15
2022-09-13T16:37:27.218Z,4.20
2022-09-13T16:39:57.109Z,4.43
2022-09-13T16:42:24.504Z,4.20
2022-09-13T16:44:50.895Z,4.97
2022-09-13T16:47:17.959Z,4.97
2022-09-13T16:49:44.718Z,4.70
2022-09-13T16:52:11.462Z,5.30
2022-09-13T16:54:39.049Z,5.20
2022-09-13T16:57:10.137Z,5.63
2022-09-13T16:59:37.035Z,4.80
2022-09-13T17:02:03.955Z,4.75
2022-09-13T17:04:30.507Z,5.25
2022-09-13T17:06:57.673Z,6.43
2022-09-13T17:09:27.457Z,5.15
2022-09-13T17:11:54.257Z,5.95
2022-09-13T17:14:21.852Z,4.85
2022-09-13T17:16:54.136Z,5.95
2022-09-13T17:19:26.593Z,5.70
2022-09-13T17:21:57.217Z,6.38
2022-09-13T17:24:25.593Z,6.43
2022-09-13T17:26:52.100Z,6.35
2022-09-13T17:29:19.502Z,5.78
2022-09-13T17:31:46.240Z,6.75
2022-09-13T17:34:15.741Z,5.78
2022-09-13T17:36:42.906Z,5.78
2022-09-13T17:39:10.213Z,5.97
2022-09-13T17:41:36.844Z,5.72
2022-09-13T17:44:03.760Z,5.80
2022-09-13T17:46:30.643Z,5.45
2022-09-13T17:48:59.639Z,6.60
2022-09-13T17:51:31.022Z,6.38
2022-09-13T17:54:00.311Z,7.07
2022-09-13T17:56:30.379Z,7.10
2022-09-13T17:59:10.056Z,7.75
2022-09-13T18:01:39.987Z,6.75
2022-09-13T18:04:07.725Z,6.40
2022-09-13T18:06:45.823Z,6.72
2022-09-13T18:09:14.080Z,6.07
2022-09-13T18:11:41.157Z,7.15
2022-09-13T18:14:12.385Z,8.05
2022-09-13T18:16:39.248Z,7.85
2022-09-13T18:19:05.869Z,6.47
2022-09-13T18:21:32.289Z,7.55
2022-09-13T18:24:01.499Z,7.53
2022-09-13T18:26:35.799Z,7.55
2022-09-13T18:29:06.217Z,7.82
2022-09-13T18:31:34.632Z,6.68
2022-09-13T18:34:08.216Z,6.57
2022-09-13T18:36:40.872Z,6.65
2022-09-13T18:39:33.245Z,7.88
2022-09-13T18:42:01.051Z,6.97
2022-09-13T18:44:30.397Z,7.72
2022-09-13T18:47:05.195Z,7.90
2022-09-13T18:49:31.640Z,7.90
2022-09-13T18:52:01.294Z,7.88
2022-09-13T18:54:27.825Z,8.43
2022-09-13T18:56:54.856Z,7.13
2022-09-13T18:59:21.425Z,6.90
2022-09-13T19:01:48.823Z,7.55
2022-09-13T19:04:20.083Z,9.70
2022-09-13T19:06:52.391Z,7.85
2022-09-13T19:09:21.181Z,8.63
2022-09-13T19:11:52.262Z,7.85
2022-09-13T19:14:24.567Z,7.05
2022-09-13T19:16:54.368Z,7.80
2022-09-13T19:19:20.868Z,7.53
2022-09-13T19:21:47.805Z,8.82
2022-09-13T19:24:20.158Z,7.55
2022-09-13T19:26:49.203Z,9.20
2022-09-13T19:29:18.237Z,8.77
2022-09-13T19:31:49.889Z,8.70
2022-09-13T19:34:19.086Z,7.85
2022-09-13T19:36:46.940Z,8.15
2022-09-13T19:39:13.874Z,7.82
2022-09-13T19:41:41.220Z,8.32
2022-09-13T19:44:08.747Z,7.03
2022-09-13T19:46:38.199Z,7.20
2022-09-13T19:49:06.531Z,8.10
2022-09-13T19:52:25.361Z,7.30
2022-09-13T19:54:58.476Z,8.52
2022-09-13T19:57:25.787Z,8.75
2022-09-13T19:59:52.437Z,7.50
2022-09-13T20:02:23.462Z,7.43
2022-09-13T20:04:50.027Z,7.65
2022-09-13T20:07:16.640Z,8.18
2022-09-13T20:09:46.765Z,6.88
2022-09-13T20:12:14.047Z,7.00
2022-09-13T20:14:40.487Z,6.93
2022-09-13T20:17:08.036Z,7.32
2022-09-13T20:19:42.461Z,8.45
2022-09-13T20:22:11.510Z,7.90
2022-09-13T20:24:38.330Z,6.38
2022-09-13T20:27:05.343Z,6.80
2022-09-13T20:29:31.876Z,5.85
2022-09-13T20:31:59.449Z,5.60
2022-09-13T20:34:27.099Z,4.80
2022-09-13T20:36:53.521Z,5.28
2022-09-13T20:39:20.016Z,3.60
2022-09-13T20:41:49.329Z,3.97
2022-09-13T20:44:16.006Z,3.92
2022-09-13T20:46:43.241Z,3.60
2022-09-13T20:49:09.814Z,3.40
2022-09-13T20:51:37.270Z,5.85
2022-09-13T20:54:04.877Z,4.85
2022-09-13T20:56:33.853Z,4.32
2022-09-13T20:59:00.654Z,4.22
2022-09-13T21:01:29.486Z,4.70
2022-09-13T21:03:57.453Z,5.05
2022-09-13T21:06:27.062Z,4.50
2022-09-13T21:08:56.196Z,4.28
2022-09-13T21:11:25.925Z,5.07
2022-09-13T21:14:01.253Z,5.55
2022-09-13T21:16:30.475Z,4.80
2022-09-13T21:18:57.787Z,5.15
2022-09-13T21:21:26.662Z,4.95
2022-09-13T21:23:53.230Z,4.85
2022-09-13T21:26:22.865Z,5.68
2022-09-13T21:28:49.982Z,5.25
2022-09-13T21:31:21.788Z,5.10
2022-09-13T21:33:53.010Z,5.25
2022-09-13T21:36:19.431Z,4.72
2022-09-13T21:38:45.927Z,5.00
2022-09-13T21:41:16.610Z,5.03
2022-09-13T21:43:43.939Z,4.88
2022-09-13T21:46:16.961Z,5.03
2022-09-13T21:48:46.077Z,4.90
2022-09-13T21:51:17.658Z,5.03
2022-09-13T21:53:45.634Z,4.35
2022-09-13T21:56:15.742Z,10.45
2022-09-13T21:58:47.265Z,5.13
